Time;durP1;ratioP1;P1;durP2;ratioP2;P2;SDS_P1;SDS_P2;PMS_P1;PMS_P2;Temp;Humidity;BMP_temperature;BMP_pressure;BME280_temperature;BME280_humidity;BME280_pressure;Samples;Min_cycle;Max_cycle;Signal;HPM_P1;HPM_P2
2023/03/12 00:02:13;;;;;;;9.77;3.90;;;;;;;;;;5054858;27;98378;-75
2023/03/12 00:04:40;;;;;;;8.80;3.67;;;;;;;;;;5077686;27;98941;-75
2023/03/12 00:07:07;;;;;;;9.15;3.95;;;;;;;;;;5078722;27;98020;-76
2023/03/12 00:09:35;;;;;;;10.43;3.67;;;;;;;;;;5060149;27;98379;-78
2023/03/12 00:12:02;;;;;;;9.73;3.75;;;;;;;;;;5078597;27;100805;-77
2023/03/12 00:14:28;;;;;;;10.43;3.58;;;;;;;;;;5058366;27;101645;-78
2023/03/12 00:16:54;;;;;;;8.57;3.83;;;;;;;;;;5059850;27;98638;-78
2023/03/12 00:19:21;;;;;;;8.35;3.50;;;;;;;;;;5058747;27;98875;-78
2023/03/12 00:21:48;;;;;;;8.05;3.15;;;;;;;;;;5078139;27;98259;-77
2023/03/12 00:24:15;;;;;;;10.05;3.55;;;;;;;;;;5078142;27;98233;-77
2023/03/12 00:26:42;;;;;;;8.88;3.40;;;;;;;;;;5076739;27;99895;-77
2023/03/12 00:29:08;;;;;;;8.73;3.33;;;;;;;;;;5059410;27;98627;-77
2023/03/12 00:31:35;;;;;;;8.90;3.40;;;;;;;;;;5081603;27;98956;-77
2023/03/12 00:34:01;;;;;;;9.27;3.70;;;;;;;;;;5077722;27;99127;-78
2023/03/12 00:36:29;;;;;;;8.82;3.30;;;;;;;;;;5076612;27;98346;-78
2023/03/12 00:38:55;;;;;;;;;;;;;;;;;;5080896;27;102896;-78
2023/03/12 00:41:23;;;;;;;7.47;3.53;;;;;;;;;;5078206;27;99632;-77
2023/03/12 00:43:50;;;;;;;10.23;3.70;;;;;;;;;;5078673;27;98533;-76
2023/03/12 00:46:17;;;;;;;7.47;3.38;;;;;;;;;;5076432;27;99606;-76
2023/03/12 00:48:44;;;;;;;7.40;3.70;;;;;;;;;;5059468;27;98613;-76
2023/03/12 00:51:11;;;;;;;6.68;3.05;;;;;;;;;;5074937;27;98698;-78
2023/03/12 00:53:38;;;;;;;7.20;3.25;;;;;;;;;;5055049;27;101727;-76
2023/03/12 00:56:04;;;;;;;8.43;3.15;;;;;;;;;;5073026;27;98485;-76
2023/03/12 00:58:31;;;;;;;6.72;3.15;;;;;;;;;;5076041;27;98608;-77
2023/03/12 01:00:58;;;;;;;6.53;3.25;;;;;;;;;;5079036;27;99492;-78
2023/03/12 01:03:25;;;;;;;8.60;3.40;;;;;;;;;;5055249;27;99413;-76
2023/03/12 01:05:53;;;;;;;6.68;3.10;;;;;;;;;;5043626;27;101189;-77
2023/03/12 01:08:20;;;;;;;6.82;3.10;;;;;;;;;;5042302;27;98617;-77
2023/03/12 01:10:47;;;;;;;6.68;3.25;;;;;;;;;;5056485;27;100856;-76
2023/03/12 01:13:13;;;;;;;7.18;3.17;;;;;;;;;;5039386;27;101245;-77
2023/03/12 01:15:40;;;;;;;7.45;3.15;;;;;;;;;;5056407;27;98596;-77
2023/03/12 01:18:06;;;;;;;6.45;2.58;;;;;;;;;;5035329;27;100486;-77
2023/03/12 01:20:33;;;;;;;8.30;2.83;;;;;;;;;;5066285;27;98059;-77
2023/03/12 01:22:59;;;;;;;6.50;2.70;;;;;;;;;;5044996;27;98299;-77
2023/03/12 01:25:26;;;;;;;6.90;2.70;;;;;;;;;;5056907;27;100824;-76
2023/03/12 01:27:52;;;;;;;7.85;3.05;;;;;;;;;;5073222;27;99913;-77
2023/03/12 01:30:19;;;;;;;5.60;2.67;;;;;;;;;;5076794;27;99424;-76
2023/03/12 01:32:45;;;;;;;6.90;2.90;;;;;;;;;;5053276;27;101638;-77
2023/03/12 01:35:12;;;;;;;9.82;2.60;;;;;;;;;;5042613;27;98400;-77
2023/03/12 01:37:39;;;;;;;6.45;2.70;;;;;;;;;;5055110;27;100669;-76
2023/03/12 01:40:05;;;;;;;6.57;2.63;;;;;;;;;;5056679;27;99440;-77
2023/03/12 01:42:32;;;;;;;8.60;2.85;;;;;;;;;;5080130;27;98602;-77
2023/03/12 01:44:59;;;;;;;10.07;2.70;;;;;;;;;;5040148;27;100863;-76
2023/03/12 01:47:30;;;;;;;8.25;3.10;;;;;;;;;;5057887;27;98624;-79
2023/03/12 01:49:59;;;;;;;8.63;3.15;;;;;;;;;;5040758;27;100806;-79
2023/03/12 01:52:28;;;;;;;12.55;2.95;;;;;;;;;;5057665;27;102321;-79
2023/03/12 01:55:03;;;;;;;7.72;2.97;;;;;;;;;;5039358;27;98193;-79
2023/03/12 01:57:45;;;;;;;12.05;3.35;;;;;;;;;;5042424;27;100756;-79
2023/03/12 02:00:18;;;;;;;8.68;3.10;;;;;;;;;;5056919;27;100951;-79
2023/03/12 02:02:45;;;;;;;6.80;2.67;;;;;;;;;;5055666;27;98683;-80
2023/03/12 02:05:16;;;;;;;8.50;3.28;;;;;;;;;;5060115;27;100933;-81
2023/03/12 02:07:42;;;;;;;7.63;2.97;;;;;;;;;;5041347;27;98253;-80
2023/03/12 02:10:09;;;;;;;6.00;2.83;;;;;;;;;;5049633;27;98530;-79
2023/03/12 02:12:36;;;;;;;6.82;2.72;;;;;;;;;;5054239;27;101116;-80
2023/03/12 02:15:02;;;;;;;9.80;3.00;;;;;;;;;;5056777;27;98312;-80
2023/03/12 02:17:30;;;;;;;8.05;2.92;;;;;;;;;;5056702;27;100988;-80
2023/03/12 02:20:00;;;;;;;6.80;2.67;;;;;;;;;;5053867;27;101417;-78
2023/03/12 02:22:28;;;;;;;8.52;3.20;;;;;;;;;;5043885;27;99815;-78
2023/03/12 02:25:03;;;;;;;9.95;2.80;;;;;;;;;;5055702;27;104774;-79
2023/03/12 02:27:35;;;;;;;7.55;2.75;;;;;;;;;;5059783;27;100534;-79
2023/03/12 02:30:02;;;;;;;8.07;2.78;;;;;;;;;;5046521;27;101820;-78
2023/03/12 02:32:32;;;;;;;10.32;3.13;;;;;;;;;;5055240;27;101438;-83
2023/03/12 02:35:00;;;;;;;8.65;3.15;;;;;;;;;;5072642;27;97548;-78
2023/03/12 02:37:26;;;;;;;5.95;2.45;;;;;;;;;;5050107;27;99672;-80
2023/03/12 02:40:14;;;;;;;7.45;2.80;;;;;;;;;;5056548;27;100921;-80
2023/03/12 02:42:40;;;;;;;6.78;2.67;;;;;;;;;;5056272;27;99451;-80
2023/03/12 02:45:07;;;;;;;7.38;2.70;;;;;;;;;;5057163;27;101796;-80
2023/03/12 02:47:33;;;;;;;6.07;2.60;;;;;;;;;;5051473;27;101518;-80
2023/03/12 02:50:00;;;;;;;7.47;2.40;;;;;;;;;;5079417;27;98622;-80
2023/03/12 02:52:26;;;;;;;7.07;2.85;;;;;;;;;;5056222;27;101453;-80
2023/03/12 02:54:53;;;;;;;8.43;3.20;;;;;;;;;;5039353;27;98602;-80
2023/03/12 02:57:19;;;;;;;8.00;2.60;;;;;;;;;;5054778;27;101584;-80
2023/03/12 02:59:46;;;;;;;8.95;2.60;;;;;;;;;;5041344;27;100332;-79
2023/03/12 03:02:12;;;;;;;7.28;2.60;;;;;;;;;;5039491;27;99356;-79
2023/03/12 03:04:39;;;;;;;6.75;2.80;;;;;;;;;;5036328;27;100699;-79
2023/03/12 03:07:06;;;;;;;6.43;2.42;;;;;;;;;;5050963;27;99812;-80
2023/03/12 03:09:32;;;;;;;6.53;2.40;;;;;;;;;;5053487;27;99099;-79
2023/03/12 03:11:59;;;;;;;5.60;2.47;;;;;;;;;;5057284;27;100901;-79
2023/03/12 03:14:27;;;;;;;7.10;2.55;;;;;;;;;;5038220;27;98577;-78
2023/03/12 03:16:54;;;;;;;5.72;2.50;;;;;;;;;;5057334;27;105358;-79
2023/03/12 03:19:21;;;;;;;6.47;2.75;;;;;;;;;;5056741;27;101921;-78
2023/03/12 03:21:48;;;;;;;5.35;2.33;;;;;;;;;;5057075;27;98609;-78
2023/03/12 03:24:15;;;;;;;5.00;2.30;;;;;;;;;;5058990;27;99420;-80
2023/03/12 03:26:43;;;;;;;8.43;2.60;;;;;;;;;;5054586;27;101613;-78
2023/03/12 03:29:09;;;;;;;9.23;2.50;;;;;;;;;;5076953;27;100088;-78
2023/03/12 03:31:36;;;;;;;8.30;2.17;;;;;;;;;;5074633;27;101151;-79
2023/03/12 03:34:02;;;;;;;6.10;2.60;;;;;;;;;;5050665;27;100960;-80
2023/03/12 03:36:29;;;;;;;4.93;2.30;;;;;;;;;;5049556;27;106944;-80
2023/03/12 03:39:03;;;;;;;7.25;2.50;;;;;;;;;;5053548;27;105932;-80
2023/03/12 03:41:31;;;;;;;5.15;1.98;;;;;;;;;;5040402;27;98215;-79
2023/03/12 03:43:58;;;;;;;6.10;2.35;;;;;;;;;;5043545;27;100899;-79
2023/03/12 03:46:26;;;;;;;5.68;2.30;;;;;;;;;;5050692;27;100791;-78
2023/03/12 03:48:58;;;;;;;5.97;2.15;;;;;;;;;;5050302;27;98798;-78
2023/03/12 03:51:26;;;;;;;6.60;2.22;;;;;;;;;;5055911;27;100203;-80
2023/03/12 03:53:59;;;;;;;4.70;2.13;;;;;;;;;;5058850;27;101622;-78
2023/03/12 03:56:25;;;;;;;6.65;2.17;;;;;;;;;;5073276;27;99461;-79
2023/03/12 03:58:52;;;;;;;7.22;2.20;;;;;;;;;;5048905;27;99550;-79
2023/03/12 04:01:20;;;;;;;5.82;2.13;;;;;;;;;;5040793;27;98757;-78
2023/03/12 04:03:47;;;;;;;11.20;2.25;;;;;;;;;;5033262;27;100031;-78
2023/03/12 04:06:14;;;;;;;4.93;2.03;;;;;;;;;;5074461;27;98862;-78
2023/03/12 04:08:41;;;;;;;5.10;2.10;;;;;;;;;;5074063;27;98675;-77
2023/03/12 04:11:13;;;;;;;4.28;1.83;;;;;;;;;;5056496;27;100611;-77
2023/03/12 04:13:40;;;;;;;6.38;2.08;;;;;;;;;;5073165;27;100246;-78
2023/03/12 04:16:08;;;;;;;6.40;2.20;;;;;;;;;;5077566;27;98616;-78
2023/03/12 04:18:35;;;;;;;5.25;1.90;;;;;;;;;;5039185;27;100928;-78
2023/03/12 04:21:03;;;;;;;5.45;2.10;;;;;;;;;;5038668;27;99327;-78
2023/03/12 04:23:29;;;;;;;6.32;2.03;;;;;;;;;;5056859;27;101948;-79
2023/03/12 04:25:56;;;;;;;5.05;1.98;;;;;;;;;;5055605;27;100533;-79
2023/03/12 04:28:22;;;;;;;4.93;2.00;;;;;;;;;;5075207;27;98598;-79
2023/03/12 04:30:55;;;;;;;4.32;1.80;;;;;;;;;;5049648;27;101294;-80
2023/03/12 04:33:22;;;;;;;7.28;2.20;;;;;;;;;;5073360;27;102129;-80
2023/03/12 04:35:50;;;;;;;7.68;2.20;;;;;;;;;;5056189;27;99403;-79
2023/03/12 04:38:18;;;;;;;8.38;2.50;;;;;;;;;;5043129;27;100377;-79
2023/03/12 04:40:45;;;;;;;5.47;2.05;;;;;;;;;;5048680;27;98822;-80
2023/03/12 04:43:12;;;;;;;8.35;2.20;;;;;;;;;;5047401;27;100968;-80
2023/03/12 04:45:38;;;;;;;6.53;2.00;;;;;;;;;;5038457;27;102305;-80
2023/03/12 04:48:05;;;;;;;5.70;2.10;;;;;;;;;;5056274;27;98801;-80
2023/03/12 04:50:31;;;;;;;4.65;1.90;;;;;;;;;;5055044;27;101417;-80
2023/03/12 04:52:58;;;;;;;7.00;2.10;;;;;;;;;;5031546;27;101388;-78
2023/03/12 04:55:24;;;;;;;5.07;1.60;;;;;;;;;;5056057;27;99547;-79
2023/03/12 04:57:51;;;;;;;6.40;2.13;;;;;;;;;;5032664;27;100801;-79
2023/03/12 05:00:17;;;;;;;3.63;1.83;;;;;;;;;;5058272;27;99554;-80
2023/03/12 05:02:45;;;;;;;5.35;1.90;;;;;;;;;;5047753;27;101372;-80
2023/03/12 05:05:11;;;;;;;5.97;1.95;;;;;;;;;;5049423;27;101415;-80
2023/03/12 05:07:38;;;;;;;4.95;2.00;;;;;;;;;;5031727;27;99571;-80
2023/03/12 05:10:06;;;;;;;5.63;1.95;;;;;;;;;;5038772;27;101120;-80
2023/03/12 05:12:32;;;;;;;5.32;1.85;;;;;;;;;;5046593;27;101337;-80
2023/03/12 05:14:59;;;;;;;4.53;1.83;;;;;;;;;;5056307;27;98422;-80
2023/03/12 05:17:26;;;;;;;7.35;2.10;;;;;;;;;;5048787;27;101138;-80
2023/03/12 05:19:52;;;;;;;4.55;1.77;;;;;;;;;;5048256;27;99336;-80
2023/03/12 05:22:18;;;;;;;5.93;1.80;;;;;;;;;;5078518;27;98247;-79
2023/03/12 05:24:45;;;;;;;5.38;1.90;;;;;;;;;;5053788;27;100884;-79
2023/03/12 05:27:12;;;;;;;5.53;2.08;;;;;;;;;;5075024;27;98134;-79
2023/03/12 05:29:38;;;;;;;4.93;1.73;;;;;;;;;;5038859;27;100118;-79
2023/03/12 05:32:06;;;;;;;4.93;2.05;;;;;;;;;;5039717;27;102196;-79
2023/03/12 05:34:33;;;;;;;2.95;1.65;;;;;;;;;;5046554;27;99912;-80
2023/03/12 05:37:00;;;;;;;5.90;2.28;;;;;;;;;;5037475;27;101663;-80
2023/03/12 05:39:28;;;;;;;;;;;;;;;;;;5053920;27;100396;-79
2023/03/12 05:41:58;;;;;;;5.28;1.90;;;;;;;;;;5034801;27;98861;-78
2023/03/12 05:44:25;;;;;;;9.98;2.30;;;;;;;;;;5057476;27;101685;-79
2023/03/12 05:46:53;;;;;;;6.53;2.00;;;;;;;;;;5054069;27;98909;-79
2023/03/12 05:49:24;;;;;;;5.25;1.95;;;;;;;;;;5031662;27;101319;-79
2023/03/12 05:51:52;;;;;;;7.82;1.98;;;;;;;;;;5048594;27;101430;-78
2023/03/12 05:54:20;;;;;;;6.13;1.90;;;;;;;;;;5054558;27;98651;-78
2023/03/12 05:56:49;;;;;;;5.15;2.03;;;;;;;;;;5047668;27;101014;-78
2023/03/12 05:59:16;;;;;;;5.63;1.90;;;;;;;;;;5030741;27;101719;-78
2023/03/12 06:01:42;;;;;;;3.95;1.98;;;;;;;;;;5054280;27;98301;-77
2023/03/12 06:04:10;;;;;;;5.45;2.00;;;;;;;;;;5041731;27;101703;-78
2023/03/12 06:06:37;;;;;;;4.88;1.92;;;;;;;;;;5046557;27;98287;-78
2023/03/12 06:09:04;;;;;;;4.90;1.80;;;;;;;;;;5053306;27;100521;-79
2023/03/12 06:11:31;;;;;;;4.78;1.80;;;;;;;;;;5031891;27;101451;-79
2023/03/12 06:13:58;;;;;;;5.38;1.90;;;;;;;;;;5048443;27;98344;-78
2023/03/12 06:16:25;;;;;;;5.45;2.10;;;;;;;;;;5054908;27;101411;-78
2023/03/12 06:18:52;;;;;;;;;;;;;;;;;;5047355;27;101305;-79
2023/03/12 06:21:21;;;;;;;4.50;1.80;;;;;;;;;;5039192;27;98888;-79
2023/03/12 06:23:48;;;;;;;4.82;1.90;;;;;;;;;;5046398;27;100589;-79
2023/03/12 06:26:20;;;;;;;4.93;2.00;;;;;;;;;;5056356;27;100988;-79
2023/03/12 06:28:47;;;;;;;4.10;1.85;;;;;;;;;;5072286;27;99090;-79
2023/03/12 06:31:14;;;;;;;5.10;1.90;;;;;;;;;;5037484;27;101294;-79
2023/03/12 06:33:41;;;;;;;6.75;2.35;;;;;;;;;;5054830;27;98905;-79
2023/03/12 06:36:08;;;;;;;5.20;2.13;;;;;;;;;;5046620;27;100697;-80
2023/03/12 06:38:35;;;;;;;5.07;2.13;;;;;;;;;;5052713;27;98832;-81
2023/03/12 06:41:02;;;;;;;5.28;1.90;;;;;;;;;;5072190;27;98057;-80
2023/03/12 06:43:30;;;;;;;4.15;1.85;;;;;;;;;;5035852;27;99567;-78
2023/03/12 06:45:57;;;;;;;7.55;2.30;;;;;;;;;;5070415;27;99010;-80
2023/03/12 06:48:24;;;;;;;;;;;;;;;;;;5031207;27;99327;-79
2023/03/12 06:50:50;;;;;;;4.43;1.70;;;;;;;;;;5044226;27;127452;-81
2023/03/12 06:53:17;;;;;;;5.43;2.10;;;;;;;;;;5070663;27;98733;-79
2023/03/12 06:55:44;;;;;;;5.35;2.10;;;;;;;;;;5035759;27;101228;-77
2023/03/12 06:58:11;;;;;;;4.93;1.85;;;;;;;;;;5045795;27;101732;-77
2023/03/12 07:00:38;;;;;;;5.18;2.05;;;;;;;;;;5069137;27;98500;-79
2023/03/12 07:03:04;;;;;;;4.03;1.95;;;;;;;;;;5070807;27;98499;-79
2023/03/12 07:05:31;;;;;;;3.78;1.63;;;;;;;;;;5029545;27;98560;-79
2023/03/12 07:07:57;;;;;;;5.57;2.20;;;;;;;;;;5071138;27;98669;-79
2023/03/12 07:10:26;;;;;;;4.90;1.90;;;;;;;;;;5046632;27;105187;-80
2023/03/12 07:12:53;;;;;;;4.75;1.92;;;;;;;;;;5045012;27;100404;-80
2023/03/12 07:15:20;;;;;;;5.97;1.85;;;;;;;;;;5054194;27;99181;-80
2023/03/12 07:17:47;;;;;;;5.80;2.05;;;;;;;;;;5042455;27;101217;-79
2023/03/12 07:20:13;;;;;;;5.20;2.10;;;;;;;;;;5045525;27;98740;-80
2023/03/12 07:22:40;;;;;;;5.95;1.95;;;;;;;;;;5071375;27;98945;-80
2023/03/12 07:25:07;;;;;;;5.22;2.10;;;;;;;;;;5069712;27;99366;-80
2023/03/12 07:27:33;;;;;;;6.10;1.98;;;;;;;;;;5046202;27;98438;-80
2023/03/12 07:30:00;;;;;;;6.15;1.98;;;;;;;;;;5047717;27;98972;-80
2023/03/12 07:32:26;;;;;;;7.05;2.00;;;;;;;;;;5047298;27;101360;-80
2023/03/12 07:34:53;;;;;;;4.40;2.00;;;;;;;;;;5046814;27;100808;-80
2023/03/12 07:37:19;;;;;;;5.07;2.00;;;;;;;;;;5043925;27;99630;-80
2023/03/12 07:39:50;;;;;;;4.95;2.00;;;;;;;;;;5043110;27;98464;-80
2023/03/12 07:42:16;;;;;;;5.60;2.00;;;;;;;;;;5029838;27;1148113;-80
2023/03/12 07:44:44;;;;;;;4.60;1.88;;;;;;;;;;5052843;27;100842;-80
2023/03/12 07:47:11;;;;;;;4.55;2.10;;;;;;;;;;5071741;27;99048;-79
2023/03/12 07:49:49;;;;;;;4.45;2.00;;;;;;;;;;5072399;27;98823;-79
2023/03/12 07:52:17;;;;;;;4.68;2.13;;;;;;;;;;5045298;27;100994;-78
2023/03/12 07:54:43;;;;;;;5.15;1.70;;;;;;;;;;5047921;27;97624;-79
2023/03/12 07:57:10;;;;;;;7.70;2.08;;;;;;;;;;5071557;27;99276;-79
2023/03/12 07:59:37;;;;;;;4.75;1.90;;;;;;;;;;5044026;27;98921;-79
2023/03/12 08:02:03;;;;;;;5.45;2.00;;;;;;;;;;5055223;27;99639;-79
2023/03/12 08:04:30;;;;;;;6.63;2.08;;;;;;;;;;5055028;27;101362;-79
2023/03/12 08:06:57;;;;;;;5.30;2.28;;;;;;;;;;5056648;27;99028;-79
2023/03/12 08:09:24;;;;;;;4.10;2.00;;;;;;;;;;5073961;27;98692;-79
2023/03/12 08:11:50;;;;;;;5.18;2.35;;;;;;;;;;5074728;27;99734;-79
2023/03/12 08:14:17;;;;;;;5.63;1.95;;;;;;;;;;5052172;27;99283;-80
2023/03/12 08:16:44;;;;;;;4.85;1.92;;;;;;;;;;5046557;27;101449;-80
2023/03/12 08:19:10;;;;;;;5.70;2.10;;;;;;;;;;5076145;27;98115;-80
2023/03/12 08:21:37;;;;;;;5.75;2.03;;;;;;;;;;5038957;27;101968;-78
2023/03/12 08:24:03;;;;;;;5.53;2.30;;;;;;;;;;5049574;27;100042;-80
2023/03/12 08:26:30;;;;;;;6.05;2.40;;;;;;;;;;5073470;27;99602;-81
2023/03/12 08:28:56;;;;;;;6.30;2.25;;;;;;;;;;5074587;27;100091;-79
2023/03/12 08:31:23;;;;;;;5.55;2.03;;;;;;;;;;5074446;27;99554;-79
2023/03/12 08:33:49;;;;;;;5.80;2.08;;;;;;;;;;5057109;27;98652;-80
2023/03/12 08:36:16;;;;;;;6.85;2.35;;;;;;;;;;5059150;27;98773;-79
2023/03/12 08:38:42;;;;;;;4.75;2.10;;;;;;;;;;5073062;27;98902;-81
2023/03/12 08:41:09;;;;;;;5.85;2.20;;;;;;;;;;5030549;27;101221;-78
2023/03/12 08:43:36;;;;;;;7.10;1.95;;;;;;;;;;5048218;27;98679;-79
2023/03/12 08:46:03;;;;;;;7.10;2.33;;;;;;;;;;5075483;27;98608;-79
2023/03/12 08:48:30;;;;;;;5.40;2.15;;;;;;;;;;5074013;27;99406;-79
2023/03/12 08:50:58;;;;;;;5.25;2.10;;;;;;;;;;5071878;27;99722;-79
2023/03/12 08:53:25;;;;;;;7.72;2.20;;;;;;;;;;5074551;27;98717;-80
2023/03/12 08:55:55;;;;;;;4.65;2.05;;;;;;;;;;5046243;27;100992;-79
2023/03/12 08:58:23;;;;;;;5.78;2.17;;;;;;;;;;5050841;27;103024;-79
2023/03/12 09:00:50;;;;;;;5.70;2.10;;;;;;;;;;5074450;27;99771;-81
2023/03/12 09:03:17;;;;;;;6.13;2.28;;;;;;;;;;5047314;27;101639;-81
2023/03/12 09:05:44;;;;;;;6.13;1.92;;;;;;;;;;5071662;27;99435;-80
2023/03/12 09:08:11;;;;;;;4.53;1.60;;;;;;;;;;5053985;27;99084;-81
2023/03/12 09:10:38;;;;;;;4.82;1.90;;;;;;;;;;5068686;27;98715;-81
2023/03/12 09:13:04;;;;;;;5.47;1.80;;;;;;;;;;5032465;27;98383;-81
2023/03/12 09:15:31;;;;;;;4.97;1.92;;;;;;;;;;5073086;27;101948;-80
2023/03/12 09:17:57;;;;;;;3.67;1.70;;;;;;;;;;5049179;27;99248;-80
2023/03/12 09:20:24;;;;;;;4.25;1.95;;;;;;;;;;5072278;27;99462;-81
2023/03/12 09:22:50;;;;;;;4.25;1.70;;;;;;;;;;5032126;27;101523;-82
2023/03/12 09:25:17;;;;;;;4.72;1.80;;;;;;;;;;5029195;27;98525;-85
2023/03/12 09:27:46;;;;;;;4.03;1.83;;;;;;;;;;5050134;27;100979;-84
2023/03/12 09:30:18;;;;;;;5.07;2.00;;;;;;;;;;5058864;27;99215;-83
2023/03/12 09:32:44;;;;;;;3.42;1.90;;;;;;;;;;5073696;27;98411;-84
2023/03/12 09:35:12;;;;;;;7.10;2.00;;;;;;;;;;5058022;27;99806;-82
2023/03/12 09:37:38;;;;;;;5.80;2.00;;;;;;;;;;5049243;27;101926;-81
2023/03/12 09:40:06;;;;;;;6.30;1.95;;;;;;;;;;5071453;27;99889;-80
2023/03/12 09:42:37;;;;;;;5.72;2.08;;;;;;;;;;5053104;27;99180;-81
2023/03/12 09:45:05;;;;;;;5.20;2.30;;;;;;;;;;5057202;27;99314;-81
2023/03/12 09:47:42;;;;;;;5.25;2.30;;;;;;;;;;5055224;27;98889;-80
2023/03/12 09:50:26;;;;;;;6.03;2.40;;;;;;;;;;5054729;27;98840;-80
2023/03/12 09:52:59;;;;;;;5.10;2.28;;;;;;;;;;5035241;27;98905;-80
2023/03/12 09:55:26;;;;;;;4.97;2.00;;;;;;;;;;5077197;27;98746;-78
2023/03/12 09:57:53;;;;;;;5.95;2.40;;;;;;;;;;5072720;27;98706;-78
2023/03/12 10:00:21;;;;;;;5.30;2.10;;;;;;;;;;5071798;27;100003;-80
2023/03/12 10:03:06;;;;;;;5.90;2.50;;;;;;;;;;5059755;27;99708;-81
2023/03/12 10:05:52;;;;;;;5.38;2.47;;;;;;;;;;5071151;27;99558;-80
2023/03/12 10:08:38;;;;;;;6.20;2.58;;;;;;;;;;5075690;27;99200;-80
2023/03/12 10:11:08;;;;;;;6.00;2.55;;;;;;;;;;5078068;27;104739;-82
2023/03/12 10:13:41;;;;;;;5.95;2.55;;;;;;;;;;5057127;27;99358;-81
2023/03/12 10:16:11;;;;;;;5.50;2.45;;;;;;;;;;5057675;27;98520;-81
2023/03/12 10:18:40;;;;;;;5.88;2.45;;;;;;;;;;5059605;27;98820;-81
2023/03/12 10:21:27;;;;;;;4.82;2.30;;;;;;;;;;5071966;27;98861;-81
2023/03/12 10:24:03;;;;;;;4.95;2.45;;;;;;;;;;5080019;27;101697;-80
2023/03/12 10:26:30;;;;;;;5.00;2.60;;;;;;;;;;5059902;27;101204;-80
2023/03/12 10:29:09;;;;;;;5.35;2.33;;;;;;;;;;5072159;27;98629;-79
2023/03/12 10:31:55;;;;;;;4.57;2.22;;;;;;;;;;5077025;27;99945;-79
2023/03/12 10:34:27;;;;;;;4.85;2.20;;;;;;;;;;5041739;27;98514;-79
2023/03/12 10:36:56;;;;;;;5.90;2.42;;;;;;;;;;5034781;27;101169;-79
2023/03/12 10:39:22;;;;;;;4.75;2.20;;;;;;;;;;5050434;27;99452;-80
2023/03/12 10:41:49;;;;;;;6.10;2.03;;;;;;;;;;5073623;27;98719;-78
2023/03/12 10:44:18;;;;;;;7.78;2.40;;;;;;;;;;5057442;27;98653;-78
2023/03/12 10:47:04;;;;;;;6.63;2.33;;;;;;;;;;5048862;27;101657;-79
2023/03/12 10:49:32;;;;;;;5.43;2.20;;;;;;;;;;5073055;27;97900;-78
2023/03/12 10:52:16;;;;;;;4.80;2.10;;;;;;;;;;5069262;27;99722;-79
2023/03/12 10:54:44;;;;;;;5.75;2.28;;;;;;;;;;5069009;27;98893;-78
2023/03/12 10:57:11;;;;;;;7.30;2.30;;;;;;;;;;5050270;27;101016;-78
2023/03/12 10:59:41;;;;;;;4.10;2.20;;;;;;;;;;5067215;27;99205;-78
2023/03/12 11:02:27;;;;;;;4.10;2.10;;;;;;;;;;5047769;27;98267;-77
2023/03/12 11:04:54;;;;;;;5.20;2.08;;;;;;;;;;5067191;27;99390;-77
2023/03/12 11:07:34;;;;;;;4.95;2.20;;;;;;;;;;5069077;27;99148;-77
2023/03/12 11:10:03;;;;;;;4.30;2.13;;;;;;;;;;5048949;27;98894;-78
2023/03/12 11:12:33;;;;;;;5.40;2.15;;;;;;;;;;5076188;27;99360;-79
2023/03/12 11:15:11;;;;;;;5.40;2.17;;;;;;;;;;5061925;27;97721;-77
2023/03/12 11:17:37;;;;;;;6.38;2.10;;;;;;;;;;5042249;27;98295;-79
2023/03/12 11:20:17;;;;;;;3.78;2.00;;;;;;;;;;5074126;27;101002;-77
2023/03/12 11:22:44;;;;;;;4.97;2.10;;;;;;;;;;5055796;27;99267;-78
2023/03/12 11:25:18;;;;;;;5.47;2.20;;;;;;;;;;5075113;27;99179;-80
2023/03/12 11:27:48;;;;;;;6.57;2.30;;;;;;;;;;5074909;27;99637;-77
2023/03/12 11:30:16;;;;;;;6.38;2.30;;;;;;;;;;5060306;27;98723;-77
2023/03/12 11:32:48;;;;;;;6.78;2.28;;;;;;;;;;5074886;27;99327;-78
2023/03/12 11:35:15;;;;;;;6.25;2.10;;;;;;;;;;5078136;27;99130;-79
2023/03/12 11:37:45;;;;;;;6.25;2.17;;;;;;;;;;5078163;27;99465;-79
2023/03/12 11:40:32;;;;;;;5.85;2.33;;;;;;;;;;5078942;27;98417;-78
2023/03/12 11:43:17;;;;;;;6.93;2.28;;;;;;;;;;5078047;27;98201;-78
2023/03/12 11:46:11;;;;;;;5.43;2.30;;;;;;;;;;5077383;27;98504;-78
2023/03/12 11:48:53;;;;;;;6.47;2.40;;;;;;;;;;5058156;27;99874;-78
2023/03/12 11:51:19;;;;;;;6.18;2.10;;;;;;;;;;5077831;27;98468;-78
2023/03/12 11:54:05;;;;;;;8.07;2.40;;;;;;;;;;5077784;27;100045;-77
2023/03/12 11:56:35;;;;;;;5.38;1.92;;;;;;;;;;5058338;27;102003;-77
2023/03/12 11:59:22;;;;;;;7.18;2.08;;;;;;;;;;5080044;27;98358;-77
2023/03/12 12:01:55;;;;;;;5.90;2.40;;;;;;;;;;5059645;27;99418;-77
2023/03/12 12:04:32;;;;;;;6.75;2.30;;;;;;;;;;5078863;27;98691;-78
2023/03/12 12:07:11;;;;;;;6.43;2.35;;;;;;;;;;5058746;27;105241;-78
2023/03/12 12:09:37;;;;;;;7.35;2.35;;;;;;;;;;5059719;27;98721;-78
2023/03/12 12:12:18;;;;;;;7.18;2.53;;;;;;;;;;5078183;27;98536;-78
2023/03/12 12:14:53;;;;;;;6.10;2.45;;;;;;;;;;5078964;27;99055;-79
2023/03/12 12:17:38;;;;;;;6.20;2.15;;;;;;;;;;5067533;27;101438;-78
2023/03/12 12:20:08;;;;;;;5.78;2.17;;;;;;;;;;5068644;27;98608;-78
2023/03/12 12:22:40;;;;;;;7.25;2.50;;;;;;;;;;5077424;27;98837;-79
2023/03/12 12:25:26;;;;;;;7.55;2.33;;;;;;;;;;5059629;27;99779;-79
2023/03/12 12:28:02;;;;;;;6.55;2.50;;;;;;;;;;5078357;27;98599;-78
2023/03/12 12:30:43;;;;;;;7.05;2.30;;;;;;;;;;5058181;27;99783;-78
2023/03/12 12:33:09;;;;;;;7.65;2.53;;;;;;;;;;5078559;27;97749;-79
2023/03/12 12:35:37;;;;;;;5.93;2.42;;;;;;;;;;5077656;27;98345;-77
2023/03/12 12:38:29;;;;;;;7.40;2.65;;;;;;;;;;5058552;27;101226;-78
2023/03/12 12:40:55;;;;;;;;;;;;;;;;;;5066622;27;99441;-78
2023/03/12 12:43:29;;;;;;;8.23;2.20;;;;;;;;;;5063285;27;127954;-78
2023/03/12 12:45:55;;;;;;;;;;;;;;;;;;5081730;27;98156;-78
2023/03/12 12:48:22;;;;;;;5.40;2.28;;;;;;;;;;5067985;27;129556;-78
2023/03/12 12:50:50;;;;;;;8.02;2.60;;;;;;;;;;5075584;27;98862;-78
2023/03/12 12:53:20;;;;;;;5.82;2.40;;;;;;;;;;5077947;27;98299;-79
2023/03/12 12:55:56;;;;;;;9.27;2.40;;;;;;;;;;5058654;27;101293;-78
2023/03/12 12:58:29;;;;;;;6.63;2.40;;;;;;;;;;5059799;27;98494;-77
2023/03/12 13:00:57;;;;;;;8.52;2.50;;;;;;;;;;5076795;27;98375;-76
2023/03/12 13:03:24;;;;;;;6.68;2.63;;;;;;;;;;5059210;27;101368;-77
2023/03/12 13:05:51;;;;;;;8.68;2.65;;;;;;;;;;5060899;27;102485;-77
2023/03/12 13:08:35;;;;;;;5.75;2.22;;;;;;;;;;5059536;27;100265;-78
2023/03/12 13:11:13;;;;;;;7.93;2.30;;;;;;;;;;5074816;27;104030;-78
2023/03/12 13:13:48;;;;;;;7.57;2.40;;;;;;;;;;5059113;27;98560;-78
2023/03/12 13:16:26;;;;;;;7.93;2.20;;;;;;;;;;5088263;27;98380;-79
2023/03/12 13:19:02;;;;;;;8.55;2.70;;;;;;;;;;5057408;27;99722;-78
2023/03/12 13:21:33;;;;;;;6.70;2.45;;;;;;;;;;5077187;27;98436;-78
2023/03/12 13:24:18;;;;;;;6.78;2.60;;;;;;;;;;5058702;27;100715;-78
2023/03/12 13:26:55;;;;;;;9.35;2.60;;;;;;;;;;5062021;27;99102;-78
2023/03/12 13:29:35;;;;;;;9.48;2.95;;;;;;;;;;5080460;27;98784;-78
2023/03/12 13:32:02;;;;;;;8.90;2.53;;;;;;;;;;5086556;27;99774;-78
2023/03/12 13:34:30;;;;;;;9.63;2.58;;;;;;;;;;5058624;27;98602;-78
2023/03/12 13:36:58;;;;;;;8.30;2.60;;;;;;;;;;5076473;27;102967;-77
2023/03/12 13:39:32;;;;;;;7.13;2.40;;;;;;;;;;5076662;27;98838;-77
2023/03/12 13:42:00;;;;;;;8.73;2.70;;;;;;;;;;5057856;27;98220;-78
2023/03/12 13:44:26;;;;;;;8.60;2.28;;;;;;;;;;5077281;27;99205;-77
2023/03/12 13:47:08;;;;;;;11.10;3.30;;;;;;;;;;5075959;27;99190;-78
2023/03/12 13:49:34;;;;;;;8.77;2.60;;;;;;;;;;5042545;27;97858;-78
2023/03/12 13:52:13;;;;;;;9.13;2.53;;;;;;;;;;5072308;27;98357;-78
2023/03/12 13:54:41;;;;;;;10.60;2.65;;;;;;;;;;5076280;27;98485;-78
2023/03/12 13:57:31;;;;;;;8.32;2.72;;;;;;;;;;5076740;27;99355;-78
2023/03/12 13:59:58;;;;;;;8.77;2.83;;;;;;;;;;5028135;27;99091;-78
2023/03/12 14:02:30;;;;;;;8.52;2.45;;;;;;;;;;5058714;27;98203;-77
2023/03/12 14:05:04;;;;;;;8.25;2.38;;;;;;;;;;5057446;27;105012;-78
2023/03/12 14:07:31;;;;;;;8.15;2.38;;;;;;;;;;5056529;27;99343;-77
2023/03/12 14:10:04;;;;;;;8.73;2.65;;;;;;;;;;5048247;27;99059;-77
2023/03/12 14:12:55;;;;;;;6.97;2.40;;;;;;;;;;5076021;27;98376;-78
2023/03/12 14:15:36;;;;;;;8.10;2.40;;;;;;;;;;5087189;27;98092;-78
2023/03/12 14:18:12;;;;;;;6.25;1.90;;;;;;;;;;5078134;27;98323;-78
2023/03/12 14:20:40;;;;;;;7.82;2.25;;;;;;;;;;5056353;27;98672;-78
2023/03/12 14:23:10;;;;;;;7.35;2.38;;;;;;;;;;5056831;27;99348;-77
2023/03/12 14:25:44;;;;;;;7.13;2.33;;;;;;;;;;5057785;27;99485;-77
2023/03/12 14:28:21;;;;;;;8.80;2.28;;;;;;;;;;5057479;27;101386;-77
2023/03/12 14:30:59;;;;;;;10.73;2.70;;;;;;;;;;5074819;27;98386;-77
2023/03/12 14:33:30;;;;;;;8.88;2.60;;;;;;;;;;5056240;27;100547;-77
2023/03/12 14:36:00;;;;;;;8.45;2.60;;;;;;;;;;5061089;27;99567;-77
2023/03/12 14:38:33;;;;;;;8.10;2.38;;;;;;;;;;5057644;27;99210;-77
2023/03/12 14:41:13;;;;;;;7.88;2.30;;;;;;;;;;5076024;27;102436;-78
2023/03/12 14:43:40;;;;;;;8.45;2.38;;;;;;;;;;5076462;27;98501;-78
2023/03/12 14:46:17;;;;;;;8.45;2.50;;;;;;;;;;5075835;27;98856;-78
2023/03/12 14:48:46;;;;;;;7.80;2.33;;;;;;;;;;5063787;27;99586;-79
2023/03/12 14:51:17;;;;;;;9.52;2.60;;;;;;;;;;5075991;27;99039;-78
2023/03/12 14:53:43;;;;;;;8.68;2.28;;;;;;;;;;5058246;27;98803;-78